Time;durP1;ratioP1;P1;durP2;ratioP2;P2;SDS_P1;SDS_P2;PMS_P1;PMS_P2;Temp;Humidity;BMP_temperature;BMP_pressure;BME280_temperature;BME280_humidity;BME280_pressure;Samples;Min_cycle;Max_cycle;Signal;HPM_P1;HPM_P2
2023/03/20 00:00:45;;;;;;;6.60;3.15;;;8.90;99.90;;;;;;5053352;28;20048;-72
2023/03/20 00:03:12;;;;;;;6.07;2.67;;;8.90;99.90;;;;;;5105843;27;20044;-72
2023/03/20 00:05:38;;;;;;;8.02;2.50;;;8.90;99.90;;;;;;5071731;28;20659;-72
2023/03/20 00:08:05;;;;;;;10.63;2.53;;;8.90;99.90;;;;;;5068162;28;20060;-72
2023/03/20 00:10:37;;;;;;;5.68;2.33;;;8.90;99.90;;;;;;5075380;28;20051;-72
2023/03/20 00:13:04;;;;;;;7.55;2.47;;;8.90;99.90;;;;;;5076457;28;20139;-72
2023/03/20 00:15:40;;;;;;;7.60;2.63;;;9.00;99.90;;;;;;5066751;28;20036;-72
2023/03/20 00:18:21;;;;;;;8.20;2.60;;;8.90;99.90;;;;;;5088679;28;20043;-72
2023/03/20 00:20:49;;;;;;;8.07;2.17;;;8.90;99.90;;;;;;5099936;27;20492;-72
2023/03/20 00:23:15;;;;;;;5.38;2.00;;;8.90;99.90;;;;;;5067624;28;20497;-72
2023/03/20 00:25:44;;;;;;;3.65;1.67;;;8.80;99.90;;;;;;5050540;28;20040;-72
2023/03/20 00:28:41;;;;;;;4.55;1.52;;;8.80;99.90;;;;;;5070933;28;20382;-72
2023/03/20 00:31:21;;;;;;;7.47;1.73;;;8.80;99.90;;;;;;5069813;28;20055;-72
2023/03/20 00:33:47;;;;;;;4.68;1.70;;;8.70;99.90;;;;;;5078518;28;20041;-72
2023/03/20 00:36:12;;;;;;;3.60;1.95;;;8.70;99.90;;;;;;5065971;28;20044;-72
2023/03/20 00:38:38;;;;;;;5.30;1.95;;;8.70;99.90;;;;;;5088893;28;20186;-72
2023/03/20 00:41:20;;;;;;;3.58;1.50;;;8.70;99.90;;;;;;5051775;28;20398;-72
2023/03/20 00:43:48;;;;;;;4.80;1.73;;;8.70;99.90;;;;;;5067269;28;20486;-72
2023/03/20 00:46:14;;;;;;;4.32;1.65;;;8.70;99.90;;;;;;5071561;28;20051;-72
2023/03/20 00:48:42;;;;;;;5.00;1.92;;;8.70;99.90;;;;;;5052817;28;20040;-72
2023/03/20 00:51:08;;;;;;;6.22;2.35;;;8.70;99.90;;;;;;5066887;28;20060;-72
2023/03/20 00:53:34;;;;;;;5.45;1.73;;;8.70;99.90;;;;;;5071150;28;20165;-72
2023/03/20 00:56:00;;;;;;;6.05;2.13;;;8.70;99.90;;;;;;5073557;28;20063;-72
2023/03/20 00:58:25;;;;;;;6.30;1.73;;;8.70;99.90;;;;;;5071907;28;20429;-72
2023/03/20 01:00:51;;;;;;;2.72;1.48;;;8.70;99.90;;;;;;5050923;28;20045;-72
2023/03/20 01:03:19;;;;;;;5.30;1.75;;;8.70;99.90;;;;;;5077921;28;20115;-72
2023/03/20 01:05:46;;;;;;;6.63;1.83;;;8.70;99.90;;;;;;5068784;28;20040;-72
2023/03/20 01:08:20;;;;;;;5.43;2.00;;;8.60;99.90;;;;;;5067330;28;20040;-72
2023/03/20 01:10:48;;;;;;;4.03;1.45;;;8.70;99.90;;;;;;5072817;28;20036;-72
2023/03/20 01:13:21;;;;;;;4.05;1.80;;;8.70;99.90;;;;;;5076707;28;20044;-72
2023/03/20 01:15:48;;;;;;;4.72;1.77;;;8.70;99.90;;;;;;5099035;28;20481;-72
2023/03/20 01:18:15;;;;;;;6.25;1.83;;;8.70;99.90;;;;;;5067739;28;20064;-72
2023/03/20 01:20:41;;;;;;;5.68;1.85;;;8.70;99.90;;;;;;5066779;28;20081;-72
2023/03/20 01:23:08;;;;;;;5.20;2.05;;;8.70;99.90;;;;;;5102568;28;20608;-72
2023/03/20 01:25:34;;;;;;;5.78;2.30;;;8.70;99.90;;;;;;5059179;28;20036;-72
2023/03/20 01:28:00;;;;;;;7.18;2.22;;;8.70;99.90;;;;;;5070936;28;20043;-72
2023/03/20 01:30:29;;;;;;;6.45;1.85;;;8.70;99.90;;;;;;5069051;28;20076;-72
2023/03/20 01:32:58;;;;;;;7.57;2.40;;;8.60;99.90;;;;;;5070458;28;20642;-72
2023/03/20 01:35:26;;;;;;;6.88;2.42;;;8.60;99.90;;;;;;5064242;28;20354;-72
2023/03/20 01:37:53;;;;;;;6.45;1.85;;;8.70;99.90;;;;;;5074667;28;20032;-72
2023/03/20 01:40:34;;;;;;;4.15;1.92;;;8.60;99.90;;;;;;5081634;28;20047;-72
2023/03/20 01:43:02;;;;;;;4.20;1.55;;;8.60;99.90;;;;;;5082835;28;20075;-72
2023/03/20 01:45:33;;;;;;;8.27;3.03;;;8.60;99.90;;;;;;5072428;28;20062;-72
2023/03/20 01:47:59;;;;;;;7.72;1.73;;;8.60;99.90;;;;;;5069588;28;20028;-72
2023/03/20 01:50:31;;;;;;;3.30;1.42;;;8.60;99.90;;;;;;5070054;28;20517;-72
2023/03/20 01:53:15;;;;;;;5.45;1.83;;;8.60;99.90;;;;;;5072448;28;20047;-72
2023/03/20 01:55:44;;;;;;;6.30;2.03;;;8.50;99.90;;;;;;5071657;28;20150;-72
2023/03/20 01:58:21;;;;;;;6.60;1.60;;;8.50;99.90;;;;;;5073891;28;20082;-72
2023/03/20 02:00:49;;;;;;;4.53;1.63;;;8.50;99.90;;;;;;5090498;28;20071;-72
2023/03/20 02:03:17;;;;;;;4.63;1.85;;;8.50;99.90;;;;;;5070961;28;20055;-72
2023/03/20 02:05:44;;;;;;;5.85;2.10;;;8.50;99.90;;;;;;5069929;28;20044;-72
2023/03/20 02:08:35;;;;;;;4.88;1.80;;;8.50;99.90;;;;;;5099819;28;20032;-72
2023/03/20 02:11:02;;;;;;;3.72;2.15;;;8.50;99.90;;;;;;5071155;28;20076;-72
2023/03/20 02:13:30;;;;;;;6.32;1.80;;;8.50;99.90;;;;;;5057623;28;20056;-72
2023/03/20 02:16:03;;;;;;;5.43;1.85;;;8.50;99.90;;;;;;5072172;28;20024;-72
2023/03/20 02:18:30;;;;;;;4.95;1.92;;;8.50;99.90;;;;;;5073130;28;20043;-72
2023/03/20 02:21:14;;;;;;;4.78;1.80;;;8.50;99.90;;;;;;5067248;28;20453;-72
2023/03/20 02:24:12;;;;;;;5.30;1.85;;;8.40;99.90;;;;;;5071460;28;20037;-72
2023/03/20 02:26:52;;;;;;;4.82;1.65;;;8.50;99.90;;;;;;5071125;28;21021;-72
2023/03/20 02:29:21;;;;;;;7.18;2.58;;;8.40;99.90;;;;;;5068173;28;20109;-72
2023/03/20 02:31:53;;;;;;;6.30;2.60;;;8.40;99.90;;;;;;5068266;28;20043;-72
2023/03/20 02:34:56;;;;;;;7.97;2.72;;;8.40;99.90;;;;;;5073606;28;20408;-72
2023/03/20 02:37:46;;;;;;;12.30;2.80;;;8.40;99.90;;;;;;5070309;28;20109;-72
2023/03/20 02:40:44;;;;;;;6.03;2.67;;;8.40;99.90;;;;;;5071862;28;20466;-72
2023/03/20 02:43:29;;;;;;;6.55;2.90;;;8.40;99.90;;;;;;5072480;28;20040;-72
2023/03/20 02:46:11;;;;;;;9.77;3.10;;;8.40;99.90;;;;;;5108404;27;20405;-72
2023/03/20 02:48:46;;;;;;;11.02;2.92;;;8.30;99.90;;;;;;5078366;28;20451;-72
2023/03/20 02:51:27;;;;;;;8.87;3.67;;;8.40;99.90;;;;;;5073879;28;20040;-72
2023/03/20 02:54:04;;;;;;;9.20;2.90;;;8.30;99.90;;;;;;5069284;28;20494;-72
2023/03/20 02:56:58;;;;;;;5.57;2.40;;;8.40;99.90;;;;;;5068229;28;20051;-72
2023/03/20 02:59:31;;;;;;;6.28;2.30;;;8.40;99.90;;;;;;5075449;28;20079;-72
2023/03/20 03:02:05;;;;;;;7.38;2.70;;;8.30;99.90;;;;;;5074566;28;20047;-72
2023/03/20 03:04:37;;;;;;;7.70;3.00;;;8.30;99.90;;;;;;5067943;28;20040;-72
2023/03/20 03:07:05;;;;;;;5.22;2.63;;;8.30;99.90;;;;;;5079999;28;20036;-72
2023/03/20 03:09:37;;;;;;;8.00;2.67;;;8.40;99.90;;;;;;5104153;27;20071;-72
2023/03/20 03:12:27;;;;;;;7.95;2.90;;;8.30;99.90;;;;;;5070264;28;20533;-72
2023/03/20 03:15:12;;;;;;;7.25;2.70;;;8.30;99.90;;;;;;5069936;28;20100;-72
2023/03/20 03:17:41;;;;;;;5.28;1.92;;;8.30;99.90;;;;;;5074913;28;20082;-72
2023/03/20 03:20:20;;;;;;;6.03;2.90;;;8.30;99.90;;;;;;5069358;28;20585;-72
2023/03/20 03:22:46;;;;;;;8.32;2.97;;;8.30;99.90;;;;;;5052496;28;20047;-71
2023/03/20 03:25:12;;;;;;;5.70;2.25;;;8.30;99.90;;;;;;5072014;28;20048;-72
2023/03/20 03:27:41;;;;;;;6.97;2.15;;;8.30;99.90;;;;;;5070582;28;20043;-72
2023/03/20 03:30:26;;;;;;;6.95;2.65;;;8.30;99.90;;;;;;5071587;28;20596;-72
2023/03/20 03:33:14;;;;;;;6.15;2.70;;;8.30;99.90;;;;;;5071375;28;20040;-72
2023/03/20 03:35:40;;;;;;;8.27;2.72;;;8.30;99.90;;;;;;5069854;28;20086;-72
2023/03/20 03:38:43;;;;;;;8.68;3.05;;;8.30;99.90;;;;;;5073331;28;20046;-72
2023/03/20 03:41:30;;;;;;;5.53;2.40;;;8.30;99.90;;;;;;5088327;28;20090;-72
2023/03/20 03:44:44;;;;;;;9.60;3.60;;;8.30;99.90;;;;;;5068055;28;20065;-72
2023/03/20 03:47:17;;;;;;;5.97;2.55;;;8.30;99.90;;;;;;5057744;28;20102;-72
2023/03/20 03:49:49;;;;;;;7.30;2.53;;;8.30;99.90;;;;;;5072362;28;20048;-72
2023/03/20 03:52:21;;;;;;;5.53;2.60;;;8.30;99.90;;;;;;5058102;28;20059;-72
2023/03/20 03:55:02;;;;;;;8.15;3.15;;;8.30;99.90;;;;;;5055459;28;20052;-72
2023/03/20 03:57:33;;;;;;;7.32;2.72;;;8.30;99.90;;;;;;5069830;28;20247;-72
2023/03/20 04:00:05;;;;;;;8.32;2.72;;;8.30;99.90;;;;;;5072326;28;21305;-72
2023/03/20 04:02:32;;;;;;;10.20;2.60;;;8.30;99.90;;;;;;5069381;28;20390;-72
2023/03/20 04:05:00;;;;;;;6.68;3.55;;;8.30;99.90;;;;;;5072717;28;20536;-72
2023/03/20 04:07:27;;;;;;;8.45;3.17;;;8.30;99.90;;;;;;5073598;28;20071;-72
2023/03/20 04:09:53;;;;;;;6.57;2.67;;;8.30;99.90;;;;;;5074259;28;20078;-72
2023/03/20 04:12:24;;;;;;;8.40;2.92;;;8.30;99.90;;;;;;5074179;28;20139;-72
2023/03/20 04:14:50;;;;;;;8.90;3.22;;;8.30;99.90;;;;;;5070863;28;20048;-72
2023/03/20 04:17:15;;;;;;;9.43;2.38;;;8.30;99.90;;;;;;5074658;28;20909;-72
2023/03/20 04:19:41;;;;;;;8.25;2.47;;;8.30;99.90;;;;;;5070453;28;20397;-72
2023/03/20 04:22:06;;;;;;;8.52;2.72;;;8.30;99.90;;;;;;5072767;28;20055;-72
2023/03/20 04:24:32;;;;;;;7.85;2.58;;;8.30;99.90;;;;;;5074314;28;20486;-72
2023/03/20 04:26:58;;;;;;;8.23;2.65;;;8.30;99.90;;;;;;5073924;28;20036;-72
2023/03/20 04:29:25;;;;;;;9.30;2.90;;;8.20;99.90;;;;;;5074075;28;20056;-72
2023/03/20 04:31:50;;;;;;;4.03;1.98;;;8.30;99.90;;;;;;5090475;28;20432;-72
2023/03/20 04:34:17;;;;;;;4.95;2.60;;;8.30;99.90;;;;;;5074790;28;20036;-72
2023/03/20 04:36:43;;;;;;;7.88;2.80;;;8.20;99.90;;;;;;5070972;28;20043;-72
2023/03/20 04:39:09;;;;;;;7.30;2.38;;;8.30;99.90;;;;;;5087643;28;20557;-72
2023/03/20 04:41:35;;;;;;;4.68;1.73;;;8.30;99.90;;;;;;5067485;28;20048;-72
2023/03/20 04:44:00;;;;;;;5.82;2.20;;;8.30;99.90;;;;;;5071977;28;20047;-72
2023/03/20 04:46:26;;;;;;;8.15;2.05;;;8.30;99.90;;;;;;5069831;28;20412;-72
2023/03/20 04:48:51;;;;;;;6.03;2.00;;;8.30;99.90;;;;;;5074625;28;20040;-72
2023/03/20 04:51:17;;;;;;;6.85;3.00;;;8.30;99.90;;;;;;5069316;28;20033;-72
2023/03/20 04:53:43;;;;;;;5.93;2.05;;;8.20;99.90;;;;;;5074232;28;20040;-72
2023/03/20 04:56:08;;;;;;;3.53;1.52;;;8.20;99.90;;;;;;5059653;28;20391;-72
2023/03/20 04:58:35;;;;;;;3.90;1.90;;;8.20;99.90;;;;;;5072851;28;20039;-72
2023/03/20 05:01:00;;;;;;;6.95;1.98;;;8.20;99.90;;;;;;5068957;28;20044;-72
2023/03/20 05:03:26;;;;;;;5.75;1.92;;;8.20;99.90;;;;;;5070935;28;20032;-72
2023/03/20 05:05:52;;;;;;;5.07;1.40;;;8.20;99.90;;;;;;5068609;28;20036;-72
2023/03/20 05:08:17;;;;;;;6.53;2.17;;;8.20;99.90;;;;;;5073659;28;20073;-72
2023/03/20 05:10:43;;;;;;;4.32;1.50;;;8.20;99.90;;;;;;5072358;28;20387;-72
2023/03/20 05:13:09;;;;;;;7.15;2.50;;;8.20;99.90;;;;;;5076438;28;20394;-72
2023/03/20 05:15:35;;;;;;;5.30;2.20;;;8.20;99.90;;;;;;5070956;28;20147;-72
2023/03/20 05:18:00;;;;;;;4.93;1.73;;;8.20;99.90;;;;;;5065503;28;20764;-72
2023/03/20 05:20:26;;;;;;;6.20;2.45;;;8.20;99.90;;;;;;5071802;28;20497;-72
2023/03/20 05:22:52;;;;;;;6.63;2.53;;;8.10;99.90;;;;;;5070383;28;20115;-72
2023/03/20 05:25:17;;;;;;;4.63;2.00;;;8.20;99.90;;;;;;5068898;28;20044;-72
2023/03/20 05:27:45;;;;;;;9.77;2.17;;;8.20;99.90;;;;;;5074536;28;20612;-72
2023/03/20 05:30:12;;;;;;;8.40;2.78;;;8.10;99.90;;;;;;5053509;28;20044;-72
2023/03/20 05:32:39;;;;;;;8.75;2.45;;;8.10;99.90;;;;;;5071469;28;20055;-72
2023/03/20 05:35:05;;;;;;;6.38;2.45;;;8.10;99.90;;;;;;5078555;28;20149;-72
2023/03/20 05:37:31;;;;;;;7.35;2.45;;;8.10;99.90;;;;;;5078147;28;20044;-72
2023/03/20 05:39:57;;;;;;;13.00;3.15;;;8.10;99.90;;;;;;5073146;28;20227;-72
2023/03/20 05:42:22;;;;;;;7.45;2.55;;;8.10;99.90;;;;;;5074258;28;20463;-72
2023/03/20 05:44:48;;;;;;;6.72;2.50;;;8.10;99.90;;;;;;5108329;27;20048;-72
2023/03/20 05:47:13;;;;;;;7.60;2.67;;;8.10;99.90;;;;;;5072566;28;20445;-72
2023/03/20 05:49:39;;;;;;;6.57;2.63;;;8.10;99.90;;;;;;5067817;28;20039;-72
2023/03/20 05:52:05;;;;;;;6.35;3.08;;;8.10;99.90;;;;;;5073070;28;20120;-72
2023/03/20 05:54:30;;;;;;;10.00;2.90;;;8.10;99.90;;;;;;5093173;28;20378;-72
2023/03/20 05:56:56;;;;;;;9.48;3.10;;;8.10;99.90;;;;;;5078276;28;20036;-72
2023/03/20 05:59:21;;;;;;;6.38;2.60;;;8.10;99.90;;;;;;5073322;28;20036;-72
2023/03/20 06:01:47;;;;;;;7.95;2.72;;;8.10;99.90;;;;;;5056689;28;20044;-72
2023/03/20 06:04:12;;;;;;;7.00;3.05;;;8.10;99.90;;;;;;5074934;28;20036;-72
2023/03/20 06:06:40;;;;;;;6.82;2.50;;;8.10;99.90;;;;;;5074829;28;20120;-72
2023/03/20 06:09:06;;;;;;;10.68;2.75;;;8.10;99.90;;;;;;5059259;28;20040;-72
2023/03/20 06:11:31;;;;;;;5.82;2.13;;;8.10;99.90;;;;;;5076729;28;20102;-72
2023/03/20 06:13:58;;;;;;;6.70;3.10;;;8.10;99.90;;;;;;5075507;28;20044;-72
2023/03/20 06:16:25;;;;;;;7.22;2.40;;;8.10;99.90;;;;;;5074683;28;20071;-72
2023/03/20 06:18:51;;;;;;;7.93;2.83;;;8.10;99.90;;;;;;5069794;28;20111;-72
2023/03/20 06:21:16;;;;;;;5.97;2.63;;;8.10;99.90;;;;;;5054966;28;20344;-72
2023/03/20 06:23:42;;;;;;;6.82;2.65;;;8.10;99.90;;;;;;5059100;28;20035;-72
2023/03/20 06:26:08;;;;;;;9.70;2.88;;;8.10;99.90;;;;;;5056600;28;20611;-72
2023/03/20 06:28:33;;;;;;;8.02;3.17;;;8.10;99.90;;;;;;5077661;28;20079;-72
2023/03/20 06:30:59;;;;;;;6.88;2.63;;;8.20;99.90;;;;;;5056681;28;20048;-72
2023/03/20 06:33:24;;;;;;;6.55;3.08;;;8.20;99.90;;;;;;5073084;28;20086;-72
2023/03/20 06:35:50;;;;;;;7.55;2.92;;;8.20;99.90;;;;;;5067245;28;20036;-72
2023/03/20 06:38:16;;;;;;;9.82;3.47;;;8.20;99.90;;;;;;5075377;28;20447;-72
2023/03/20 06:40:42;;;;;;;8.38;3.08;;;8.20;99.90;;;;;;5056907;28;20040;-72
2023/03/20 06:43:10;;;;;;;5.63;2.72;;;8.20;99.90;;;;;;5075061;28;20119;-72
2023/03/20 06:45:35;;;;;;;9.40;3.55;;;8.20;99.90;;;;;;5105723;27;20400;-72
2023/03/20 06:48:04;;;;;;;8.25;3.17;;;8.20;99.90;;;;;;5109122;27;20111;-72
2023/03/20 06:50:30;;;;;;;7.90;2.42;;;8.30;99.90;;;;;;5070528;28;20130;-72
2023/03/20 06:52:56;;;;;;;6.00;2.40;;;8.30;99.90;;;;;;5073534;28;20702;-72
2023/03/20 06:55:21;;;;;;;5.82;2.72;;;8.30;99.90;;;;;;5074757;28;20448;-72
2023/03/20 06:57:47;;;;;;;11.05;3.22;;;8.30;99.90;;;;;;5073629;28;20067;-72
2023/03/20 07:00:13;;;;;;;7.38;3.05;;;8.30;99.90;;;;;;5071610;28;20040;-72
2023/03/20 07:02:39;;;;;;;6.93;2.88;;;8.30;99.90;;;;;;5069690;28;20449;-72
2023/03/20 07:05:05;;;;;;;7.03;2.33;;;8.40;99.90;;;;;;5068901;28;20033;-72
2023/03/20 07:07:31;;;;;;;6.68;2.63;;;8.40;99.90;;;;;;5073097;28;20040;-72
2023/03/20 07:09:57;;;;;;;7.53;2.83;;;8.40;99.90;;;;;;5072105;28;20047;-72
2023/03/20 07:12:27;;;;;;;8.50;2.53;;;8.40;99.90;;;;;;5070441;28;20063;-72
2023/03/20 07:14:53;;;;;;;6.32;2.22;;;8.40;99.90;;;;;;5069542;28;20481;-72
2023/03/20 07:17:18;;;;;;;7.95;3.42;;;8.40;99.90;;;;;;5073898;28;20047;-72
2023/03/20 07:19:44;;;;;;;6.68;2.45;;;8.40;99.90;;;;;;5069703;28;20032;-72
2023/03/20 07:22:21;;;;;;;7.22;2.97;;;8.40;99.90;;;;;;5074662;28;20044;-72
2023/03/20 07:24:47;;;;;;;8.35;3.80;;;8.40;99.90;;;;;;5072345;28;20043;-71
2023/03/20 07:27:13;;;;;;;6.03;2.83;;;8.40;99.90;;;;;;5043193;28;20840;-72
2023/03/20 07:29:38;;;;;;;7.45;2.35;;;8.40;99.90;;;;;;5057772;28;20489;-72
2023/03/20 07:32:04;;;;;;;8.30;2.35;;;8.50;99.90;;;;;;5111828;27;20040;-72
2023/03/20 07:34:30;;;;;;;7.70;2.78;;;8.50;99.90;;;;;;5074813;28;20047;-72
2023/03/20 07:36:55;;;;;;;12.50;3.00;;;8.50;99.90;;;;;;5102481;27;20051;-72
2023/03/20 07:39:21;;;;;;;8.60;2.30;;;8.50;99.90;;;;;;5055121;28;20078;-74
2023/03/20 07:41:47;;;;;;;9.65;3.17;;;8.50;99.90;;;;;;5075565;28;20040;-72
2023/03/20 07:44:13;;;;;;;6.90;2.85;;;8.60;99.90;;;;;;5083826;28;20052;-72
2023/03/20 07:46:40;;;;;;;6.47;3.03;;;8.70;99.90;;;;;;5075676;28;20039;-72
2023/03/20 07:49:06;;;;;;;8.60;3.25;;;8.60;99.90;;;;;;5052749;28;20117;-72
2023/03/20 07:51:32;;;;;;;7.32;3.58;;;8.60;99.90;;;;;;5071811;28;20055;-72
2023/03/20 07:53:58;;;;;;;8.40;2.75;;;8.60;99.90;;;;;;5069525;28;20036;-72
2023/03/20 07:56:23;;;;;;;9.55;3.20;;;8.70;99.90;;;;;;5069491;28;20060;-72
2023/03/20 07:58:49;;;;;;;8.98;2.33;;;8.70;99.90;;;;;;5061433;28;20408;-72
2023/03/20 08:01:15;;;;;;;9.57;3.03;;;8.80;99.90;;;;;;5067575;28;20055;-72
2023/03/20 08:03:41;;;;;;;6.28;2.38;;;8.80;99.90;;;;;;5081797;28;20036;-72
2023/03/20 08:06:08;;;;;;;6.47;3.17;;;8.80;99.90;;;;;;5064366;28;20127;-72
2023/03/20 08:08:34;;;;;;;9.07;3.00;;;8.90;99.90;;;;;;5105151;27;20638;-72
2023/03/20 08:11:00;;;;;;;8.32;2.65;;;8.90;99.90;;;;;;5074862;28;20143;-71
2023/03/20 08:13:26;;;;;;;6.70;2.70;;;8.90;99.90;;;;;;5072719;28;20572;-72
2023/03/20 08:15:52;;;;;;;6.07;2.83;;;8.90;99.90;;;;;;5075015;28;20045;-72
2023/03/20 08:18:19;;;;;;;6.20;2.78;;;8.90;99.90;;;;;;5091157;28;20067;-72
2023/03/20 08:20:45;;;;;;;6.93;2.40;;;8.90;99.90;;;;;;5073227;28;20094;-72
2023/03/20 08:23:11;;;;;;;5.88;2.80;;;8.90;99.90;;;;;;5072941;28;20103;-71
2023/03/20 08:25:37;;;;;;;6.97;3.30;;;9.00;99.90;;;;;;5071618;28;20075;-71
2023/03/20 08:28:03;;;;;;;8.60;3.30;;;9.00;99.90;;;;;;5072856;28;20032;-71
2023/03/20 08:30:29;;;;;;;6.93;2.72;;;9.00;99.90;;;;;;5070851;28;20040;-71
2023/03/20 08:32:57;;;;;;;8.68;3.22;;;9.00;99.90;;;;;;5072700;28;20054;-71
2023/03/20 08:35:22;;;;;;;6.80;2.58;;;9.10;99.90;;;;;;5068567;28;20335;-71
2023/03/20 08:37:48;;;;;;;8.02;2.53;;;9.10;99.90;;;;;;5074656;28;20524;-71
2023/03/20 08:40:14;;;;;;;9.98;3.28;;;9.10;99.90;;;;;;5055534;28;20064;-71
2023/03/20 08:42:39;;;;;;;9.48;3.63;;;9.20;99.90;;;;;;5062334;28;20040;-72
2023/03/20 08:45:06;;;;;;;7.80;3.42;;;9.20;99.90;;;;;;5064375;28;20055;-72
2023/03/20 08:47:32;;;;;;;8.57;3.13;;;9.30;99.90;;;;;;5065967;28;20044;-71
2023/03/20 08:49:57;;;;;;;6.70;3.28;;;9.30;99.90;;;;;;5064467;28;20040;-71
2023/03/20 08:52:23;;;;;;;7.70;2.88;;;9.40;99.90;;;;;;5047574;28;20028;-71
2023/03/20 08:54:49;;;;;;;4.93;2.53;;;9.40;99.90;;;;;;5063219;28;20158;-72
2023/03/20 08:57:14;;;;;;;9.43;3.22;;;9.40;99.90;;;;;;5061442;28;20417;-71
2023/03/20 08:59:40;;;;;;;8.80;3.65;;;9.50;99.90;;;;;;5067803;28;20117;-71
2023/03/20 09:02:06;;;;;;;8.90;3.72;;;9.70;99.90;;;;;;5048632;28;20043;-71
2023/03/20 09:04:32;;;;;;;7.32;3.20;;;9.60;99.90;;;;;;5078591;28;20032;-72
2023/03/20 09:07:00;;;;;;;7.00;2.90;;;9.60;99.90;;;;;;5058933;28;20063;-71
2023/03/20 09:09:28;;;;;;;8.43;3.45;;;9.70;99.90;;;;;;5072836;28;20040;-71
2023/03/20 09:11:57;;;;;;;6.70;2.65;;;9.70;99.90;;;;;;5060377;28;20097;-71
2023/03/20 09:14:24;;;;;;;8.60;3.20;;;9.70;99.90;;;;;;5073330;28;20041;-71
2023/03/20 09:16:50;;;;;;;8.93;2.83;;;9.80;99.90;;;;;;5049331;28;20036;-71
2023/03/20 09:19:16;;;;;;;6.90;3.10;;;9.70;99.90;;;;;;5069033;28;20639;-71
2023/03/20 09:21:42;;;;;;;8.07;3.08;;;9.80;99.90;;;;;;5097019;27;20048;-72
2023/03/20 09:24:08;;;;;;;5.55;2.70;;;9.80;99.90;;;;;;5068867;28;20390;-71
2023/03/20 09:26:33;;;;;;;5.82;2.85;;;9.80;99.90;;;;;;5067740;28;20043;-71
2023/03/20 09:28:59;;;;;;;7.72;3.35;;;9.80;99.90;;;;;;5065313;28;20040;-71
2023/03/20 09:31:25;;;;;;;8.23;3.05;;;9.80;99.90;;;;;;5070215;28;20043;-71
2023/03/20 09:33:50;;;;;;;6.95;3.33;;;9.90;99.90;;;;;;5067732;28;20148;-72
2023/03/20 09:36:16;;;;;;;5.57;2.88;;;9.90;99.90;;;;;;5068136;28;20028;-71
2023/03/20 09:38:42;;;;;;;6.93;2.50;;;9.90;99.90;;;;;;5052591;28;20028;-72
2023/03/20 09:41:20;;;;;;;7.53;2.75;;;10.00;99.90;;;;;;5067831;28;20047;-71
2023/03/20 09:44:01;;;;;;;9.52;2.95;;;10.10;99.90;;;;;;5064854;28;20051;-71
2023/03/20 09:46:48;;;;;;;6.95;2.67;;;10.20;99.90;;;;;;5063802;28;20429;-71
2023/03/20 09:49:26;;;;;;;9.38;3.00;;;10.30;99.90;;;;;;5065838;28;21606;-71
2023/03/20 09:51:58;;;;;;;9.18;2.95;;;10.30;99.90;;;;;;5101229;27;20043;-71
2023/03/20 09:54:40;;;;;;;6.78;3.03;;;10.30;99.90;;;;;;5089091;28;20047;-71
2023/03/20 09:57:18;;;;;;;6.40;2.63;;;10.30;99.90;;;;;;5072493;28;20078;-71
2023/03/20 09:59:44;;;;;;;6.30;2.90;;;10.30;99.90;;;;;;5064485;28;20230;-71
2023/03/20 10:02:23;;;;;;;6.10;2.80;;;10.40;99.90;;;;;;5083891;27;20521;-72
2023/03/20 10:04:52;;;;;;;8.55;2.92;;;10.40;99.90;;;;;;5068577;28;20048;-71
2023/03/20 10:07:18;;;;;;;6.53;2.80;;;10.40;99.90;;;;;;5101375;27;20093;-74
2023/03/20 10:09:44;;;;;;;9.80;3.20;;;10.50;99.90;;;;;;5074009;28;20047;-72
2023/03/20 10:12:29;;;;;;;6.20;3.10;;;10.50;99.90;;;;;;5063989;28;20140;-71
2023/03/20 10:15:20;;;;;;;6.55;2.90;;;10.50;99.90;;;;;;5053963;28;20036;-71
2023/03/20 10:18:14;;;;;;;8.43;3.55;;;10.50;99.90;;;;;;5051417;28;20123;-72
2023/03/20 10:21:18;;;;;;;7.43;2.92;;;10.50;99.90;;;;;;5065967;28;20158;-71
2023/03/20 10:24:04;;;;;;;6.50;2.90;;;10.50;99.90;;;;;;5047309;28;20041;-72
2023/03/20 10:26:34;;;;;;;6.85;2.92;;;10.50;99.90;;;;;;5097165;27;20060;-72
2023/03/20 10:29:06;;;;;;;8.82;3.70;;;10.50;99.90;;;;;;5094916;27;20060;-75
2023/03/20 10:31:52;;;;;;;8.25;3.80;;;10.60;99.90;;;;;;5047097;28;20064;-72
2023/03/20 10:34:34;;;;;;;8.60;3.83;;;10.60;99.90;;;;;;5066864;28;20429;-72
2023/03/20 10:37:12;;;;;;;7.55;3.20;;;10.60;99.90;;;;;;5064812;28;20067;-72
2023/03/20 10:39:58;;;;;;;5.97;3.22;;;10.60;99.90;;;;;;5066762;28;20444;-72
2023/03/20 10:42:31;;;;;;;8.65;3.83;;;10.60;99.90;;;;;;5067266;28;20050;-72
2023/03/20 10:45:26;;;;;;;8.40;3.40;;;10.60;99.90;;;;;;5063679;28;20205;-72
2023/03/20 10:47:53;;;;;;;9.32;3.88;;;10.60;99.90;;;;;;5065158;28;20048;-72
2023/03/20 10:50:27;;;;;;;8.43;3.88;;;10.60;99.90;;;;;;5050920;28;20044;-72
2023/03/20 10:52:55;;;;;;;6.70;3.75;;;10.50;99.90;;;;;;5067246;28;20078;-72
2023/03/20 10:55:28;;;;;;;8.20;3.83;;;10.50;99.90;;;;;;5101501;27;22253;-72
2023/03/20 10:58:20;;;;;;;8.48;4.00;;;10.50;99.90;;;;;;5047163;28;20115;-72
2023/03/20 11:00:46;;;;;;;7.10;3.33;;;10.50;99.90;;;;;;5068480;28;20142;-72
2023/03/20 11:03:21;;;;;;;9.75;3.45;;;10.50;99.90;;;;;;5081929;28;20393;-72
2023/03/20 11:05:51;;;;;;;5.80;3.65;;;10.40;99.90;;;;;;5065544;28;20064;-72
2023/03/20 11:08:23;;;;;;;9.07;3.85;;;10.40;99.90;;;;;;5055598;28;20090;-72
2023/03/20 11:10:58;;;;;;;12.50;4.28;;;10.40;99.90;;;;;;5071444;28;20093;-71
2023/03/20 11:13:26;;;;;;;;;;;10.40;99.90;;;;;;5083967;28;20486;-73
2023/03/20 11:15:53;;;;;;;6.93;3.75;;;10.30;99.90;;;;;;5079023;28;19969;-72
2023/03/20 11:18:19;;;;;;;7.35;3.60;;;10.30;99.90;;;;;;5080900;28;20132;-72
2023/03/20 11:20:52;;;;;;;7.07;3.90;;;10.30;99.90;;;;;;5079920;28;20028;-72
2023/03/20 11:23:23;;;;;;;8.85;3.88;;;10.30;99.90;;;;;;5065492;28;20390;-72
2023/03/20 11:25:57;;;;;;;7.72;3.50;;;10.20;99.90;;;;;;5074457;28;20038;-72
2023/03/20 11:28:36;;;;;;;8.05;3.20;;;10.20;99.90;;;;;;5077100;28;20115;-72
2023/03/20 11:31:04;;;;;;;5.95;2.95;;;10.20;99.90;;;;;;5072083;28;20486;-72
2023/03/20 11:33:32;;;;;;;6.25;3.20;;;10.20;99.90;;;;;;5080064;28;20046;-72
2023/03/20 11:35:58;;;;;;;8.77;3.50;;;10.20;99.90;;;;;;5079224;28;20051;-71
2023/03/20 11:38:24;;;;;;;5.85;2.83;;;10.20;99.90;;;;;;5074877;28;20390;-72
2023/03/20 11:40:52;;;;;;;6.22;2.53;;;10.20;99.90;;;;;;5080765;28;20035;-72
2023/03/20 11:43:26;;;;;;;7.97;2.65;;;10.20;99.90;;;;;;5071357;28;20044;-72
2023/03/20 11:45:58;;;;;;;4.30;2.40;;;10.10;99.90;;;;;;5073907;28;20032;-72
2023/03/20 11:48:37;;;;;;;3.47;1.83;;;10.10;99.90;;;;;;5100748;27;20041;-72
2023/03/20 11:51:09;;;;;;;5.03;2.67;;;10.10;99.90;;;;;;5071027;28;20036;-73
2023/03/20 11:53:40;;;;;;;5.25;3.13;;;10.10;99.90;;;;;;5070281;28;20035;-76
2023/03/20 11:56:24;;;;;;;8.13;2.42;;;10.10;99.90;;;;;;5070152;28;20574;-74
2023/03/20 11:58:54;;;;;;;4.63;2.63;;;10.10;99.90;;;;;;5070719;28;20516;-72
2023/03/20 12:01:21;;;;;;;4.20;2.40;;;10.10;99.90;;;;;;5069749;28;20039;-72
2023/03/20 12:04:04;;;;;;;4.68;2.40;;;10.10;99.90;;;;;;5072670;28;20043;-72
2023/03/20 12:06:53;;;;;;;4.72;2.75;;;10.10;99.90;;;;;;5057141;28;20170;-72
2023/03/20 12:09:24;;;;;;;5.53;3.40;;;10.10;99.90;;;;;;5072735;28;20044;-72
2023/03/20 12:12:33;;;;;;;4.57;2.53;;;10.10;99.90;;;;;;5108194;27;20166;-72
2023/03/20 12:15:13;;;;;;;6.28;2.63;;;10.10;99.90;;;;;;5039681;28;20048;-72
2023/03/20 12:18:10;;;;;;;6.75;2.83;;;10.20;99.90;;;;;;5068109;28;20168;-72
2023/03/20 12:20:41;;;;;;;6.32;2.33;;;10.20;99.90;;;;;;5065662;28;20505;-72
2023/03/20 12:23:10;;;;;;;5.45;2.10;;;10.20;99.90;;;;;;5070865;28;20052;-72
2023/03/20 12:25:41;;;;;;;6.45;2.22;;;10.20;99.90;;;;;;5053675;28;20097;-72
2023/03/20 12:28:18;;;;;;;6.15;2.28;;;10.20;99.90;;;;;;5086483;28;20043;-72
2023/03/20 12:31:11;;;;;;;3.97;2.10;;;10.10;99.90;;;;;;5090554;28;20036;-72
2023/03/20 12:34:01;;;;;;;3.35;1.58;;;10.10;99.90;;;;;;5061719;28;20040;-72
2023/03/20 12:36:48;;;;;;;2.78;1.55;;;10.00;99.90;;;;;;5029555;28;20048;-73
2023/03/20 12:39:19;;;;;;;4.18;1.75;;;9.90;99.90;;;;;;5073122;28;20410;-72
2023/03/20 12:41:57;;;;;;;4.88;1.92;;;9.90;99.90;;;;;;5053119;28;20045;-72
2023/03/20 12:44:35;;;;;;;6.95;2.47;;;9.90;99.90;;;;;;5049299;28;20036;-72
2023/03/20 12:47:36;;;;;;;3.40;1.90;;;9.90;99.90;;;;;;5068624;28;20047;-72
2023/03/20 12:50:16;;;;;;;5.28;1.80;;;9.90;99.90;;;;;;5058088;28;20055;-72
2023/03/20 12:53:24;;;;;;;4.03;1.70;;;9.90;99.90;;;;;;5057602;28;20963;-72
2023/03/20 12:56:26;;;;;;;4.50;2.00;;;10.00;99.90;;;;;;5008282;28;20453;-72
2023/03/20 12:59:19;;;;;;;3.33;1.45;;;10.00;99.90;;;;;;5028725;28;20933;-74
2023/03/20 13:01:51;;;;;;;5.40;1.73;;;10.00;99.90;;;;;;5060569;28;20043;-72
2023/03/20 13:04:45;;;;;;;5.20;1.67;;;10.00;99.90;;;;;;5069702;28;20225;-72
2023/03/20 13:07:20;;;;;;;5.97;1.80;;;9.90;99.90;;;;;;5070626;28;20052;-72
2023/03/20 13:10:18;;;;;;;5.37;1.50;;;9.90;99.90;;;;;;5068420;28;20044;-72
2023/03/20 13:13:06;;;;;;;3.90;1.40;;;9.90;99.90;;;;;;5025470;28;20059;-72
2023/03/20 13:15:55;;;;;;;6.85;2.20;;;9.90;99.90;;;;;;5069303;28;20047;-72
2023/03/20 13:18:39;;;;;;;3.05;1.50;;;9.90;99.90;;;;;;5071256;28;20093;-72